Lothair, Montana
Current Conditions -  °F | °C
As of 6:56 AM on Saturday 20 Dec 2014 (Local Time) from KCTB Reporting Station
Clear Clear  
Wind Chill: 22°   Ceiling: Unl
Heat Index: 32°   Visibility: 10mi
Dew Point: 21°   Wind: 14mph
Humidity: 64%   Direction: 260°W
Pressure: 29.8"   Gusts: NA
Location:  48.53°N, 112.14°W
Report Text: KCTB 201356Z AUTO 26012KT 10SM CLR 00/M06 A2980 RMK AO2 PK WND 24027/1302 SLP114 T00001061
Loading
Personal Weather Stations






























Interactive Weather Map New forecast layout! Learn more

10-Day Weather Forecast

Advertisements
Track Severe Weather on mobile